Time;durP1;ratioP1;P1;durP2;ratioP2;P2;SDS_P1;SDS_P2;PMS_P1;PMS_P2;Temp;Humidity;BMP_temperature;BMP_pressure;BME280_temperature;BME280_humidity;BME280_pressure;Samples;Min_cycle;Max_cycle;Signal;HPM_P1;HPM_P2
2021/05/09 17:17:30;;;;;;;2.08;0.80;;;35.30;40.30;;;;;;5025148;28;20327;-72
2021/05/09 17:19:55;;;;;;;4.10;0.85;;;35.50;38.80;;;;;;5019469;28;20038;-73
2021/05/09 17:22:21;;;;;;;1.58;1.13;;;36.00;39.10;;;;;;5025380;28;20057;-74
2021/05/09 17:24:47;;;;;;;3.92;1.08;;;37.00;38.10;;;;;;5025849;28;20036;-72
2021/05/09 17:27:12;;;;;;;2.63;1.10;;;37.50;37.90;;;;;;5025660;28;20033;-72
2021/05/09 17:29:38;;;;;;;5.35;1.33;;;37.80;37.80;;;;;;5024679;28;20545;-72
2021/05/09 17:32:04;;;;;;;1.65;1.20;;;37.70;38.60;;;;;;5025214;28;20116;-72
2021/05/09 17:34:29;;;;;;;2.25;1.52;;;37.80;37.60;;;;;;5034334;28;20079;-75
2021/05/09 17:36:55;;;;;;;2.08;1.48;;;38.10;37.80;;;;;;5035960;27;20057;-72
2021/05/09 17:39:22;;;;;;;4.55;1.10;;;38.60;37.60;;;;;;5004982;28;20030;-73
2021/05/09 17:41:48;;;;;;;4.18;1.05;;;39.20;37.00;;;;;;5004825;28;20035;-72
2021/05/09 17:44:14;;;;;;;3.20;0.90;;;39.50;36.80;;;;;;5013639;28;20513;-73
2021/05/09 17:46:40;;;;;;;2.28;0.80;;;39.70;36.20;;;;;;5004166;28;20062;-70
2021/05/09 17:49:10;;;;;;;2.25;1.02;;;39.50;36.00;;;;;;5005074;28;20072;-71
2021/05/09 17:51:36;;;;;;;1.95;0.77;;;39.10;36.00;;;;;;5003985;28;20030;-71
2021/05/09 17:54:02;;;;;;;2.80;0.88;;;37.70;36.20;;;;;;5005029;28;20378;-72
2021/05/09 17:56:28;;;;;;;1.42;0.90;;;36.30;37.10;;;;;;5011208;28;20107;-71
2021/05/09 17:58:54;;;;;;;1.75;1.00;;;34.70;38.60;;;;;;5009859;28;20066;-72
2021/05/09 18:01:20;;;;;;;3.33;1.25;;;33.20;40.30;;;;;;5123653;27;20035;-71
2021/05/09 18:03:46;;;;;;;3.33;1.30;;;32.00;43.50;;;;;;5110240;28;20025;-71
2021/05/09 18:06:11;;;;;;;2.03;1.10;;;31.20;45.40;;;;;;5040664;27;20030;-73
2021/05/09 18:08:37;;;;;;;2.63;1.20;;;30.50;46.60;;;;;;5040693;27;20116;-74
2021/05/09 18:11:03;;;;;;;3.08;1.35;;;30.10;46.70;;;;;;5040828;27;20042;-74
2021/05/09 18:13:29;;;;;;;4.38;1.40;;;29.70;49.60;;;;;;5038428;27;20031;-73
2021/05/09 18:16:06;;;;;;;5.00;1.00;;;29.10;50.10;;;;;;5019872;28;20071;-71
2021/05/09 18:24:00;;;;;;;5.57;3.25;;;27.70;54.90;;;;;;5020550;28;20079;-73
2021/05/09 18:26:26;;;;;;;4.82;2.05;;;27.20;56.00;;;;;;5020930;28;20046;-73
2021/05/09 18:28:51;;;;;;;3.25;1.80;;;26.90;56.80;;;;;;5006195;28;20409;-73
2021/05/09 18:31:17;;;;;;;7.53;2.03;;;26.40;58.70;;;;;;4975373;28;20042;-73
2021/05/09 18:33:42;;;;;;;5.45;1.90;;;26.10;59.70;;;;;;4993636;28;20048;-77
2021/05/09 18:36:08;;;;;;;5.18;2.17;;;25.80;59.20;;;;;;5024984;28;20033;-75
2021/05/09 18:38:34;;;;;;;9.82;2.30;;;25.50;61.10;;;;;;5027214;28;20064;-76
2021/05/09 18:40:59;;;;;;;5.35;2.40;;;25.40;61.60;;;;;;5031350;28;20309;-75
2021/05/09 18:43:25;;;;;;;5.45;3.35;;;25.30;62.00;;;;;;5016647;28;20038;-74
2021/05/09 18:45:51;;;;;;;7.32;4.25;;;25.10;63.80;;;;;;5009474;28;20075;-75
2021/05/09 18:48:17;;;;;;;4.80;2.72;;;24.90;64.30;;;;;;5006247;28;20086;-77
2021/05/09 18:50:43;;;;;;;5.13;2.72;;;24.70;65.40;;;;;;5004188;28;20061;-77
2021/05/09 18:53:08;;;;;;;9.80;2.45;;;24.50;66.70;;;;;;4990370;28;20033;-77
2021/05/09 18:55:34;;;;;;;5.38;1.88;;;24.40;66.60;;;;;;4992284;28;20027;-76
2021/05/09 18:58:00;;;;;;;5.20;2.03;;;24.20;66.40;;;;;;4986867;28;20032;-77
2021/05/09 19:00:25;;;;;;;3.33;1.67;;;24.00;68.80;;;;;;4986858;28;20030;-76
2021/05/09 19:02:54;;;;;;;3.42;1.75;;;23.70;70.70;;;;;;4987693;28;20391;-78
2021/05/09 19:05:27;;;;;;;3.58;1.42;;;23.40;73.30;;;;;;5020532;28;20026;-77
2021/05/09 19:07:53;;;;;;;2.40;1.42;;;23.20;72.70;;;;;;5028265;28;20026;-77
2021/05/09 19:10:20;;;;;;;3.42;1.20;;;22.90;74.40;;;;;;5022502;28;20707;-77
2021/05/09 19:12:46;;;;;;;3.00;1.95;;;22.70;77.30;;;;;;4987120;28;20034;-76
2021/05/09 19:15:14;;;;;;;3.13;1.60;;;22.40;79.90;;;;;;4986256;28;20030;-76
2021/05/09 19:17:40;;;;;;;2.28;1.40;;;22.20;85.60;;;;;;4987095;28;20072;-76
2021/05/09 19:20:06;;;;;;;2.40;1.45;;;22.10;90.20;;;;;;4971421;28;20054;-77
2021/05/09 19:22:32;;;;;;;6.15;1.60;;;21.80;92.40;;;;;;4990740;28;20023;-77
2021/05/09 19:24:57;;;;;;;3.22;1.85;;;21.80;94.70;;;;;;4996382;28;20022;-76
2021/05/09 19:27:23;;;;;;;3.33;1.20;;;21.50;97.20;;;;;;5005978;28;20038;-76
2021/05/09 19:29:48;;;;;;;2.58;1.40;;;21.30;99.70;;;;;;4989377;28;20494;-76
2021/05/09 19:32:14;;;;;;;2.85;1.10;;;21.10;99.90;;;;;;4991040;28;20030;-76
2021/05/09 19:34:40;;;;;;;6.63;1.20;;;21.00;99.90;;;;;;5007845;28;20033;-77
2021/05/09 19:37:06;;;;;;;6.82;1.20;;;21.00;99.90;;;;;;5010209;28;20030;-76
2021/05/09 19:39:31;;;;;;;3.08;1.25;;;20.90;99.90;;;;;;5009282;28;20547;-77
2021/05/09 19:41:57;;;;;;;4.20;2.20;;;20.80;99.90;;;;;;4990239;28;20465;-75
2021/05/09 19:44:23;;;;;;;4.32;2.78;;;21.20;99.90;;;;;;4995776;28;20045;-77
2021/05/09 19:46:49;;;;;;;8.98;2.05;;;20.50;99.90;;;;;;5109873;28;20488;-76
2021/05/09 19:49:15;;;;;;;4.00;2.10;;;20.50;99.90;;;;;;5089535;28;20043;-74
2021/05/09 19:51:42;;;;;;;3.33;2.17;;;20.40;99.90;;;;;;5040417;28;20033;-77
2021/05/09 19:54:08;;;;;;;7.18;2.00;;;20.30;99.90;;;;;;5006244;28;20065;-74
2021/05/09 19:56:34;;;;;;;3.92;1.92;;;20.40;99.90;;;;;;5007486;28;20030;-77
2021/05/09 19:59:00;;;;;;;6.65;1.65;;;20.20;99.90;;;;;;5006398;28;20394;-76
2021/05/09 20:01:25;;;;;;;3.15;1.73;;;20.10;99.90;;;;;;5006098;28;20033;-74
2021/05/09 20:03:51;;;;;;;5.88;1.90;;;20.10;99.90;;;;;;4995810;28;20030;-76
2021/05/09 20:06:17;;;;;;;4.07;2.00;;;20.00;99.90;;;;;;5005330;28;20109;-75
2021/05/09 20:08:43;;;;;;;2.95;1.58;;;19.90;99.90;;;;;;5005178;28;20533;-76
2021/05/09 20:11:09;;;;;;;7.15;2.20;;;20.00;99.90;;;;;;5006940;28;20037;-78
2021/05/09 20:13:35;;;;;;;4.22;1.40;;;19.90;99.90;;;;;;5019525;28;20023;-75
2021/05/09 20:16:00;;;;;;;3.95;1.45;;;20.00;99.90;;;;;;4986078;28;20045;-77
2021/05/09 20:18:26;;;;;;;3.42;1.20;;;19.90;99.90;;;;;;4987299;28;20494;-77
2021/05/09 20:20:55;;;;;;;2.88;1.50;;;20.10;99.90;;;;;;5004682;28;20046;-73
2021/05/09 20:23:21;;;;;;;2.78;1.13;;;20.00;99.90;;;;;;5004513;28;20014;-75
2021/05/09 20:25:47;;;;;;;5.15;1.52;;;19.80;99.90;;;;;;5006320;28;20391;-75
2021/05/09 20:28:13;;;;;;;2.03;1.50;;;19.80;99.90;;;;;;5007045;28;20073;-76
2021/05/09 20:30:38;;;;;;;5.57;1.90;;;19.70;99.90;;;;;;4994972;28;20030;-79
2021/05/09 20:33:04;;;;;;;4.90;2.55;;;20.00;99.90;;;;;;5000061;28;20034;-80
2021/05/09 20:35:30;;;;;;;6.90;2.40;;;19.40;99.90;;;;;;5023509;28;20429;-79
2021/05/09 20:37:56;;;;;;;6.97;2.08;;;19.30;99.90;;;;;;5028723;28;20150;-80
2021/05/09 20:40:25;;;;;;;2.65;1.83;;;19.10;99.90;;;;;;5005210;28;20087;-80
2021/05/09 20:42:51;;;;;;;4.05;1.60;;;19.00;99.90;;;;;;5022131;22;20033;-72
2021/05/09 20:45:17;;;;;;;4.05;1.48;;;18.80;99.90;;;;;;5049849;28;20029;-72
2021/05/09 20:47:42;;;;;;;3.10;1.23;;;19.50;99.90;;;;;;5051233;28;20467;-72
2021/05/09 20:50:11;;;;;;;7.57;1.30;;;18.90;99.90;;;;;;4999987;28;20397;-71
2021/05/09 20:52:40;;;;;;;8.88;1.17;;;18.70;99.90;;;;;;5032294;28;20021;-74
2021/05/09 20:55:06;;;;;;;2.03;1.25;;;18.50;99.90;;;;;;5031039;28;20025;-72
2021/05/09 20:57:32;;;;;;;3.05;1.33;;;18.50;99.90;;;;;;5018205;28;20108;-73
2021/05/09 20:59:57;;;;;;;1.52;1.10;;;18.30;99.90;;;;;;5038856;28;20082;-77
2021/05/09 21:02:23;;;;;;;4.05;1.40;;;18.20;99.90;;;;;;5036411;28;20063;-76
2021/05/09 21:04:48;;;;;;;2.72;1.42;;;18.10;99.90;;;;;;5056646;28;20067;-77
2021/05/09 21:07:14;;;;;;;5.05;1.58;;;18.10;99.90;;;;;;5036134;28;20036;-77
2021/05/09 21:09:40;;;;;;;3.78;1.65;;;18.10;99.90;;;;;;5042307;28;20041;-78
2021/05/09 21:12:06;;;;;;;2.50;1.58;;;18.00;99.90;;;;;;5002532;28;20025;-76
2021/05/09 21:14:32;;;;;;;2.95;1.58;;;18.00;99.90;;;;;;5029312;28;20029;-78
2021/05/09 21:16:57;;;;;;;3.13;1.63;;;17.90;99.90;;;;;;5032646;28;20029;-76
2021/05/09 21:19:23;;;;;;;4.43;1.60;;;17.90;99.90;;;;;;5041739;28;20117;-75
2021/05/09 21:21:49;;;;;;;2.22;1.20;;;18.10;99.90;;;;;;5051874;28;20021;-77
2021/05/09 21:24:15;;;;;;;3.58;1.60;;;17.90;99.90;;;;;;5043306;28;20455;-76
2021/05/09 21:26:40;;;;;;;2.50;1.45;;;18.70;99.90;;;;;;4998754;28;20034;-77
2021/05/09 21:29:06;;;;;;;2.58;1.63;;;17.90;99.90;;;;;;5022285;28;20485;-77
2021/05/09 21:31:32;;;;;;;4.82;1.60;;;18.10;99.90;;;;;;5034847;28;20071;-78
2021/05/09 21:33:57;;;;;;;4.93;1.60;;;17.80;99.90;;;;;;5053273;28;20047;-77
2021/05/09 21:36:23;;;;;;;2.67;1.50;;;17.80;99.90;;;;;;5052764;28;20025;-77
2021/05/09 21:38:49;;;;;;;4.50;1.40;;;17.80;99.90;;;;;;5046962;28;20021;-77
2021/05/09 21:41:14;;;;;;;6.70;1.63;;;17.70;99.90;;;;;;5032734;28;20032;-77
2021/05/09 21:43:40;;;;;;;3.08;1.48;;;17.60;99.90;;;;;;5038287;28;20482;-77
2021/05/09 21:46:06;;;;;;;2.60;1.33;;;17.60;99.90;;;;;;5054405;28;20029;-77
2021/05/09 21:48:31;;;;;;;2.83;1.42;;;17.40;99.90;;;;;;5050836;28;20021;-78
2021/05/09 21:50:57;;;;;;;5.15;1.42;;;17.20;99.90;;;;;;5031353;28;20098;-78
2021/05/09 21:53:23;;;;;;;6.03;1.70;;;17.10;99.90;;;;;;5034693;28;20065;-77
2021/05/09 21:55:50;;;;;;;1.75;1.13;;;17.00;99.90;;;;;;5052674;28;20025;-77
2021/05/09 21:58:18;;;;;;;2.45;1.40;;;18.00;99.90;;;;;;5034864;28;20071;-77
2021/05/09 22:00:43;;;;;;;6.47;1.58;;;16.80;99.90;;;;;;5041785;28;20021;-78
2021/05/09 22:03:11;;;;;;;3.35;1.30;;;16.80;99.90;;;;;;5036918;28;20075;-77
2021/05/09 22:05:38;;;;;;;2.35;1.27;;;16.60;99.90;;;;;;5056602;28;20021;-77
2021/05/09 22:08:06;;;;;;;2.58;1.27;;;16.50;99.90;;;;;;5044066;28;20379;-77
2021/05/09 22:10:33;;;;;;;5.38;1.50;;;16.50;99.90;;;;;;5019393;28;20105;-77
2021/05/09 22:12:59;;;;;;;2.42;1.60;;;16.30;99.90;;;;;;5056370;28;20104;-77
2021/05/09 22:15:25;;;;;;;3.08;1.45;;;16.20;99.90;;;;;;5038177;28;20063;-77
2021/05/09 22:17:54;;;;;;;2.22;1.40;;;16.20;99.90;;;;;;5038578;28;20028;-77
2021/05/09 22:20:21;;;;;;;3.08;1.73;;;16.20;99.90;;;;;;5055403;28;20033;-77
2021/05/09 22:22:47;;;;;;;2.58;1.65;;;16.20;99.90;;;;;;5055624;28;20143;-77
2021/05/09 22:25:14;;;;;;;5.07;1.83;;;15.90;99.90;;;;;;5022188;28;20033;-78
2021/05/09 22:27:39;;;;;;;5.53;1.90;;;16.00;99.90;;;;;;5018658;28;20545;-77
2021/05/09 22:30:09;;;;;;;2.45;1.63;;;16.20;99.90;;;;;;5021809;28;20112;-77
2021/05/09 22:32:35;;;;;;;4.28;1.50;;;16.20;99.90;;;;;;5056012;28;20025;-77
2021/05/09 22:35:01;;;;;;;1.77;1.50;;;16.50;99.90;;;;;;5038462;28;20021;-77
2021/05/09 22:37:27;;;;;;;3.03;1.30;;;16.60;99.90;;;;;;5064505;28;20474;-77
2021/05/09 22:39:52;;;;;;;2.60;1.40;;;16.50;99.90;;;;;;5063209;28;20085;-78
2021/05/09 22:42:18;;;;;;;3.10;1.65;;;16.30;99.90;;;;;;5058740;28;20367;-77
2021/05/09 22:44:43;;;;;;;2.30;1.73;;;17.30;99.90;;;;;;5038187;28;20033;-77
2021/05/09 22:47:10;;;;;;;6.15;1.55;;;16.50;99.90;;;;;;5055174;28;20132;-78
2021/05/09 22:49:36;;;;;;;3.05;1.50;;;16.30;99.90;;;;;;5037338;28;20035;-77
2021/05/09 22:52:03;;;;;;;3.85;1.98;;;16.20;99.90;;;;;;5038132;28;20033;-77
2021/05/09 22:54:28;;;;;;;6.05;1.52;;;16.10;99.90;;;;;;5047369;28;20025;-77
2021/05/09 22:56:54;;;;;;;3.28;1.63;;;16.00;99.90;;;;;;5037087;28;20041;-77
2021/05/09 22:59:19;;;;;;;3.78;1.70;;;16.00;99.90;;;;;;5043528;28;20493;-77
2021/05/09 23:01:45;;;;;;;2.55;1.42;;;16.00;99.90;;;;;;5019222;28;20026;-77
2021/05/09 23:04:11;;;;;;;3.30;1.35;;;16.30;99.90;;;;;;5049395;28;20032;-77
2021/05/09 23:06:37;;;;;;;3.60;1.40;;;16.10;99.90;;;;;;5060982;28;20033;-77
2021/05/09 23:09:04;;;;;;;4.10;1.70;;;16.30;99.90;;;;;;5056622;28;20455;-78
2021/05/09 23:11:30;;;;;;;2.95;1.48;;;16.10;99.90;;;;;;5057327;28;20030;-77
2021/05/09 23:13:56;;;;;;;3.55;1.35;;;16.30;99.90;;;;;;5028370;28;20060;-77
